createdAt,value
2018-04-04T00:00:21.304Z,4.60
2018-04-04T00:02:50.538Z,4.47
2018-04-04T00:05:18.073Z,4.40
2018-04-04T00:07:46.546Z,4.73
2018-04-04T00:10:16.789Z,4.57
2018-04-04T00:12:44.320Z,4.70
2018-04-04T00:15:12.573Z,3.87
2018-04-04T00:17:40.143Z,4.20
2018-04-04T00:20:07.601Z,5.07
2018-04-04T00:22:35.886Z,4.43
2018-04-04T00:25:06.134Z,3.83
2018-04-04T00:27:33.634Z,4.50
2018-04-04T00:30:01.154Z,3.83
2018-04-04T00:32:28.652Z,4.20
2018-04-04T00:34:57.671Z,4.70
2018-04-04T00:37:25.971Z,3.60
2018-04-04T00:39:53.469Z,3.43
2018-04-04T00:42:20.979Z,3.93
2018-04-04T00:44:48.508Z,4.50
2018-04-04T00:47:18.736Z,3.47
2018-04-04T00:49:47.003Z,3.20
2018-04-04T00:52:15.284Z,4.17
2018-04-04T00:54:43.551Z,4.13
2018-04-04T00:57:11.852Z,3.40
2018-04-04T00:59:39.377Z,3.40
2018-04-04T01:02:09.335Z,3.77
2018-04-04T01:04:36.858Z,4.73
2018-04-04T01:07:05.144Z,4.30
2018-04-04T01:09:33.413Z,3.30
2018-04-04T01:12:01.686Z,3.93
2018-04-04T01:14:30.001Z,4.00
2018-04-04T01:16:57.497Z,3.60
2018-04-04T01:19:25.792Z,3.03
2018-04-04T01:21:54.074Z,3.80
2018-04-04T01:24:22.350Z,3.67
2018-04-04T01:26:50.632Z,2.87
2018-04-04T01:29:19.854Z,3.63
2018-04-04T01:31:47.357Z,3.67
2018-04-04T01:34:16.640Z,3.20
2018-04-04T01:36:44.150Z,3.63
2018-04-04T01:39:11.654Z,3.43
2018-04-04T01:41:39.180Z,3.20
2018-04-04T01:44:06.675Z,3.10
2018-04-04T01:46:34.176Z,3.10
2018-04-04T01:49:01.692Z,4.23
2018-04-04T01:51:29.956Z,3.70
2018-04-04T01:53:57.468Z,3.10
2018-04-04T01:56:24.965Z,3.43
2018-04-04T01:58:52.466Z,3.00
2018-04-04T02:01:20.757Z,3.53
2018-04-04T02:03:48.255Z,3.00
2018-04-04T02:06:15.778Z,3.23
2018-04-04T02:08:43.310Z,3.30
2018-04-04T02:11:11.578Z,3.13
2018-04-04T02:13:39.863Z,3.27
2018-04-04T02:16:08.127Z,3.00
2018-04-04T02:18:36.417Z,3.83
2018-04-04T02:21:04.680Z,3.20
2018-04-04T02:23:32.945Z,3.83
2018-04-04T02:26:01.239Z,3.07
2018-04-04T02:28:29.505Z,3.43
2018-04-04T02:30:57.798Z,3.33
2018-04-04T02:33:26.262Z,2.77
2018-04-04T02:35:55.466Z,2.67
2018-04-04T02:38:23.753Z,2.73
2018-04-04T02:40:51.256Z,3.17
2018-04-04T02:43:18.764Z,3.07
2018-04-04T02:45:46.281Z,2.93
2018-04-04T02:48:15.503Z,2.70
2018-04-04T02:50:43.809Z,3.10
2018-04-04T02:53:12.262Z,3.03
2018-04-04T02:55:40.550Z,3.60
2018-04-04T02:58:08.068Z,2.87
2018-04-04T03:00:35.558Z,2.90
2018-04-04T03:03:03.101Z,2.70
2018-04-04T03:05:36.651Z,2.60
2018-04-04T03:08:06.145Z,3.43
2018-04-04T03:10:33.645Z,2.90
2018-04-04T03:13:01.160Z,2.70
2018-04-04T03:15:29.560Z,2.37
2018-04-04T03:17:57.057Z,2.77
2018-04-04T03:20:25.341Z,2.77
2018-04-04T03:22:52.860Z,2.60
2018-04-04T03:25:21.156Z,2.70
2018-04-04T03:27:49.427Z,2.97
2018-04-04T03:30:17.726Z,2.57
2018-04-04T03:32:45.222Z,2.60
2018-04-04T03:35:12.716Z,2.63
2018-04-04T03:37:40.238Z,2.60
2018-04-04T03:40:07.740Z,2.80
2018-04-04T03:42:36.038Z,2.80
2018-04-04T03:45:03.574Z,2.30
2018-04-04T03:47:31.863Z,2.60
2018-04-04T03:49:59.352Z,2.13
2018-04-04T03:52:26.857Z,2.40
2018-04-04T03:54:55.136Z,2.37
2018-04-04T03:57:23.390Z,2.60
2018-04-04T03:59:51.681Z,2.70
2018-04-04T04:02:19.961Z,2.77
2018-04-04T04:04:48.241Z,2.23
2018-04-04T04:07:16.504Z,2.40
2018-04-04T04:09:44.804Z,2.30
2018-04-04T04:12:12.303Z,2.20
2018-04-04T04:14:40.733Z,2.60
2018-04-04T04:17:08.265Z,2.07
2018-04-04T04:19:36.730Z,3.00
2018-04-04T04:22:05.761Z,2.73
2018-04-04T04:24:34.025Z,2.50
2018-04-04T04:27:02.317Z,3.57
2018-04-04T04:29:29.819Z,2.30
2018-04-04T04:31:57.328Z,2.83
2018-04-04T04:34:24.866Z,2.80
2018-04-04T04:36:52.372Z,2.37
2018-04-04T04:39:19.888Z,2.50
2018-04-04T04:41:48.166Z,2.30
2018-04-04T04:44:16.455Z,2.87
2018-04-04T04:46:43.941Z,2.50
2018-04-04T04:49:11.451Z,2.23
2018-04-04T04:51:39.744Z,2.97
2018-04-04T04:54:07.235Z,2.37
2018-04-04T04:56:34.755Z,2.60
2018-04-04T04:59:02.249Z,2.90
2018-04-04T05:01:29.784Z,2.50
2018-04-04T05:03:57.285Z,2.57
2018-04-04T05:06:25.553Z,2.80
2018-04-04T05:08:53.064Z,2.50
2018-04-04T05:11:20.576Z,2.40
2018-04-04T05:13:49.630Z,2.20
2018-04-04T05:16:17.124Z,2.43
2018-04-04T05:18:45.422Z,2.40
2018-04-04T05:21:13.691Z,2.83
2018-04-04T05:23:41.197Z,2.17
2018-04-04T05:26:08.760Z,2.13
2018-04-04T05:28:36.251Z,2.20
2018-04-04T05:31:04.535Z,2.30
2018-04-04T05:33:32.998Z,2.70
2018-04-04T05:36:00.529Z,2.13
2018-04-04T05:38:28.024Z,2.07
2018-04-04T05:40:56.284Z,1.80
2018-04-04T05:43:25.765Z,2.30
2018-04-04T05:45:54.249Z,2.17
2018-04-04T05:48:22.481Z,2.27
2018-04-04T05:50:50.865Z,2.30
2018-04-04T05:53:18.394Z,2.10
2018-04-04T05:55:45.935Z,2.10
2018-04-04T05:58:15.422Z,2.90
2018-04-04T06:00:43.474Z,2.90
2018-04-04T06:03:12.678Z,2.00
2018-04-04T06:05:40.478Z,2.27
2018-04-04T06:08:08.410Z,2.67
2018-04-04T06:10:37.199Z,3.70
2018-04-04T06:13:05.155Z,2.80
2018-04-04T06:15:32.977Z,2.40
2018-04-04T06:18:00.988Z,2.23
2018-04-04T06:20:29.838Z,2.60
2018-04-04T06:22:58.766Z,2.30
2018-04-04T06:25:26.688Z,2.70
2018-04-04T06:27:55.176Z,2.37
2018-04-04T06:30:22.975Z,2.20
2018-04-04T06:32:50.778Z,6.00
2018-04-04T06:35:18.555Z,31.87
2018-04-04T06:37:48.316Z,47.67
2018-04-04T06:40:16.179Z,32.07
2018-04-04T06:42:43.943Z,30.90
2018-04-04T06:45:11.813Z,24.87
2018-04-04T06:47:41.131Z,23.43
2018-04-04T06:50:08.689Z,22.00
2018-04-04T06:52:36.183Z,24.90
2018-04-04T06:55:04.510Z,25.10
2018-04-04T06:57:32.014Z,23.10
2018-04-04T07:00:01.499Z,20.97
2018-04-04T07:02:29.020Z,21.60
2018-04-04T07:04:56.524Z,22.43
2018-04-04T07:07:24.150Z,18.23
2018-04-04T07:09:51.576Z,18.20
2018-04-04T07:12:19.111Z,18.17
2018-04-04T07:14:47.415Z,17.30
2018-04-04T07:17:14.954Z,18.50
2018-04-04T07:19:43.217Z,16.37
2018-04-04T07:22:11.516Z,17.80
2018-04-04T07:24:39.024Z,15.50
2018-04-04T07:27:06.553Z,16.63
2018-04-04T07:29:34.094Z,16.10
2018-04-04T07:32:01.641Z,13.50
2018-04-04T07:34:29.152Z,13.80
2018-04-04T07:36:56.688Z,12.90
2018-04-04T07:39:24.222Z,13.60
2018-04-04T07:41:52.665Z,10.23
2018-04-04T07:44:20.175Z,10.60
2018-04-04T07:46:47.695Z,11.07
2018-04-04T07:49:15.982Z,13.80
2018-04-04T07:51:43.514Z,11.93
2018-04-04T07:54:11.788Z,10.50
2018-04-04T07:56:40.087Z,10.00
2018-04-04T07:59:07.590Z,10.30
2018-04-04T08:01:37.876Z,8.90
2018-04-04T08:04:05.384Z,10.60
2018-04-04T08:06:34.398Z,9.53
2018-04-04T08:09:02.695Z,9.30
2018-04-04T08:11:30.206Z,8.80
2018-04-04T08:13:58.497Z,7.30
2018-04-04T08:16:26.004Z,8.27
2018-04-04T08:18:53.526Z,10.20
2018-04-04T08:21:21.796Z,9.27
2018-04-04T08:23:50.080Z,9.27
2018-04-04T08:26:18.386Z,7.50
2018-04-04T08:28:45.885Z,6.93
2018-04-04T08:31:13.412Z,8.00
2018-04-04T08:33:40.940Z,8.30
2018-04-04T08:36:08.468Z,7.40
2018-04-04T08:38:36.747Z,7.17
2018-04-04T08:41:07.025Z,7.40
2018-04-04T08:43:34.537Z,7.13
2018-04-04T08:46:02.809Z,7.60
2018-04-04T08:48:32.040Z,6.23
2018-04-04T08:50:59.539Z,5.97
2018-04-04T08:53:27.057Z,8.00
2018-04-04T08:55:54.548Z,5.40
2018-04-04T08:58:24.769Z,6.00
2018-04-04T09:00:52.278Z,5.70
2018-04-04T09:03:19.814Z,7.00
2018-04-04T09:05:49.028Z,6.20
2018-04-04T09:08:16.536Z,5.77
2018-04-04T09:10:46.812Z,5.77
2018-04-04T09:13:14.340Z,6.67
2018-04-04T09:15:42.637Z,5.57
2018-04-04T09:18:10.142Z,5.53
2018-04-04T09:20:37.668Z,5.70
2018-04-04T09:23:06.100Z,4.83
2018-04-04T09:25:34.401Z,5.70
2018-04-04T09:28:01.896Z,5.00
2018-04-04T09:30:29.400Z,5.10
2018-04-04T09:32:57.687Z,4.80
2018-04-04T09:35:25.945Z,4.47
2018-04-04T09:37:54.261Z,5.23
2018-04-04T09:40:21.769Z,4.40
2018-04-04T09:42:49.284Z,4.70
2018-04-04T09:45:16.784Z,5.23
2018-04-04T09:47:45.068Z,5.67
2018-04-04T09:50:13.346Z,6.10
2018-04-04T09:52:41.621Z,4.43
2018-04-04T09:55:11.859Z,4.00
2018-04-04T09:57:40.113Z,4.90
2018-04-04T10:00:08.421Z,6.37
2018-04-04T10:02:35.924Z,3.77
2018-04-04T10:05:03.449Z,5.47
2018-04-04T10:07:30.944Z,5.10
2018-04-04T10:09:58.473Z,4.47
2018-04-04T10:12:25.969Z,4.30
2018-04-04T10:14:53.500Z,4.10
2018-04-04T10:17:21.000Z,3.93
2018-04-04T10:19:49.269Z,4.47
2018-04-04T10:22:17.561Z,3.90
2018-04-04T10:24:45.082Z,4.40
2018-04-04T10:27:12.609Z,4.40
2018-04-04T10:29:40.132Z,4.53
2018-04-04T10:32:07.651Z,4.20
2018-04-04T10:34:35.931Z,3.70
2018-04-04T10:37:03.448Z,4.47
2018-04-04T10:39:30.959Z,3.80
2018-04-04T10:42:00.178Z,4.53
2018-04-04T10:44:27.728Z,5.70
2018-04-04T10:46:55.991Z,4.80
2018-04-04T10:49:24.277Z,3.50
2018-04-04T10:51:52.539Z,4.60
2018-04-04T10:54:20.832Z,3.87
2018-04-04T10:56:48.321Z,3.47
2018-04-04T10:59:15.836Z,4.23
2018-04-04T11:01:44.101Z,3.97
2018-04-04T11:04:12.376Z,3.27
2018-04-04T11:06:40.655Z,4.30
2018-04-04T11:09:08.907Z,3.57
2018-04-04T11:11:37.188Z,4.20
2018-04-04T11:14:05.645Z,3.40
2018-04-04T11:16:33.175Z,3.33
2018-04-04T11:19:00.673Z,3.70
2018-04-04T11:21:28.201Z,4.30
2018-04-04T11:23:55.698Z,4.10
2018-04-04T11:26:23.197Z,3.77
2018-04-04T11:28:50.722Z,3.20
2018-04-04T11:31:18.993Z,3.40
2018-04-04T11:33:46.513Z,3.07
2018-04-04T11:36:14.007Z,4.20
2018-04-04T11:38:41.536Z,3.87
2018-04-04T11:41:09.045Z,3.43
2018-04-04T11:43:36.567Z,3.57
2018-04-04T11:46:05.004Z,3.97
2018-04-04T11:48:32.494Z,3.50
2018-04-04T11:51:00.019Z,2.77
2018-04-04T11:53:27.541Z,3.03
2018-04-04T11:55:55.836Z,3.57
2018-04-04T11:58:23.333Z,4.23
2018-04-04T12:00:50.867Z,3.40
2018-04-04T12:03:18.360Z,2.90
2018-04-04T12:05:47.821Z,3.60
2018-04-04T12:08:15.324Z,3.60
2018-04-04T12:10:44.334Z,2.80
2018-04-04T12:13:12.625Z,3.83
2018-04-04T12:15:40.900Z,3.40
2018-04-04T12:18:09.190Z,3.90
2018-04-04T12:20:36.700Z,2.77
2018-04-04T12:23:07.677Z,3.27
2018-04-04T12:25:35.194Z,2.50
2018-04-04T12:28:02.724Z,2.37
2018-04-04T12:30:30.211Z,3.17
2018-04-04T12:32:58.496Z,2.33
2018-04-04T12:35:28.712Z,2.77
2018-04-04T12:37:56.252Z,3.00
2018-04-04T12:40:23.750Z,2.43
2018-04-04T12:42:52.013Z,3.00
2018-04-04T12:45:20.294Z,3.10
2018-04-04T12:47:48.568Z,2.40
2018-04-04T12:50:16.857Z,3.20
2018-04-04T12:52:44.383Z,2.73
2018-04-04T12:55:11.892Z,2.87
2018-04-04T12:57:39.423Z,3.60
2018-04-04T13:00:07.685Z,2.80
2018-04-04T13:02:35.976Z,2.53
2018-04-04T13:05:04.421Z,2.37
2018-04-04T13:07:31.945Z,3.00
2018-04-04T13:10:00.418Z,2.37
2018-04-04T13:12:27.931Z,3.13
2018-04-04T13:14:56.193Z,3.60
2018-04-04T13:17:23.791Z,3.23
2018-04-04T13:19:51.308Z,3.57
2018-04-04T13:22:18.810Z,2.30
2018-04-04T13:24:46.329Z,2.37
2018-04-04T13:27:14.589Z,2.83
2018-04-04T13:29:42.109Z,2.23
2018-04-04T13:32:09.622Z,3.07
2018-04-04T13:34:39.890Z,3.77
2018-04-04T13:37:07.382Z,2.50
2018-04-04T13:39:37.664Z,2.20
2018-04-04T13:42:05.165Z,2.17
2018-04-04T13:44:32.657Z,2.47
2018-04-04T13:47:00.181Z,3.60
2018-04-04T13:49:27.693Z,2.03
2018-04-04T13:51:55.221Z,2.10
2018-04-04T13:54:23.488Z,2.10
2018-04-04T13:56:51.776Z,3.30
2018-04-04T13:59:20.037Z,2.80
2018-04-04T14:01:48.333Z,2.27
2018-04-04T14:04:15.854Z,2.50
2018-04-04T14:06:44.129Z,3.00
2018-04-04T14:09:11.658Z,2.27
2018-04-04T14:11:39.161Z,2.60
2018-04-04T14:14:09.416Z,1.90
2018-04-04T14:16:36.921Z,2.37
2018-04-04T14:19:04.442Z,2.20
2018-04-04T14:21:31.944Z,1.83
2018-04-04T14:23:59.464Z,2.07
2018-04-04T14:26:26.960Z,2.40
2018-04-04T14:28:54.494Z,2.23
2018-04-04T14:31:22.785Z,1.70
2018-04-04T14:33:50.306Z,2.70
2018-04-04T14:36:17.826Z,2.23
2018-04-04T14:38:46.102Z,1.70
2018-04-04T14:41:13.633Z,2.30
2018-04-04T14:43:41.153Z,2.27
2018-04-04T14:46:08.686Z,2.10
2018-04-04T14:48:36.180Z,1.37
2018-04-04T14:51:03.700Z,2.23
2018-04-04T14:53:31.224Z,2.30
2018-04-04T14:55:59.500Z,2.07
2018-04-04T14:58:27.036Z,1.60
2018-04-04T15:00:55.490Z,1.77
2018-04-04T15:03:23.009Z,2.00
2018-04-04T15:05:51.280Z,2.20
2018-04-04T15:08:19.720Z,2.27
2018-04-04T15:10:47.225Z,2.03
2018-04-04T15:13:15.483Z,1.93
2018-04-04T15:15:43.802Z,2.47
2018-04-04T15:18:11.322Z,2.10
2018-04-04T15:20:39.600Z,2.10
2018-04-04T15:23:07.112Z,2.87
2018-04-04T15:25:34.663Z,1.83
2018-04-04T15:28:02.173Z,1.80
2018-04-04T15:30:30.463Z,1.47
2018-04-04T15:32:58.929Z,1.83
2018-04-04T15:35:27.193Z,2.00
2018-04-04T15:37:55.502Z,1.60
2018-04-04T15:40:22.996Z,1.67
2018-04-04T15:42:50.512Z,1.67
2018-04-04T15:45:18.041Z,2.10
2018-04-04T15:47:48.279Z,2.07
2018-04-04T15:50:16.556Z,2.17
2018-04-04T15:52:44.100Z,2.20
2018-04-04T15:55:12.369Z,2.40
2018-04-04T15:57:41.413Z,2.00
2018-04-04T16:00:08.964Z,1.70
2018-04-04T16:02:36.472Z,2.20
2018-04-04T16:05:04.789Z,2.00
2018-04-04T16:07:32.302Z,1.80
2018-04-04T16:09:59.821Z,1.87
2018-04-04T16:12:27.333Z,1.87
2018-04-04T16:14:55.625Z,1.70
2018-04-04T16:17:23.124Z,2.00
2018-04-04T16:19:50.632Z,1.93
2018-04-04T16:22:18.151Z,2.03
2018-04-04T16:24:48.109Z,2.60
2018-04-04T16:27:16.561Z,2.07
2018-04-04T16:29:44.988Z,1.63
2018-04-04T16:32:12.527Z,1.83
2018-04-04T16:34:40.031Z,2.23
2018-04-04T16:37:07.549Z,2.10
2018-04-04T16:39:35.037Z,2.20
2018-04-04T16:42:02.558Z,1.47
2018-04-04T16:44:30.088Z,1.80
2018-04-04T16:46:58.405Z,2.30
2018-04-04T16:49:27.903Z,1.90
2018-04-04T16:51:55.402Z,2.20
2018-04-04T16:54:22.930Z,2.30
2018-04-04T16:56:50.435Z,1.90
2018-04-04T16:59:18.734Z,1.70
2018-04-04T17:01:46.240Z,1.90
2018-04-04T17:04:13.732Z,1.60
2018-04-04T17:06:42.104Z,1.80
2018-04-04T17:09:10.372Z,1.93
2018-04-04T17:11:37.908Z,1.40
2018-04-04T17:14:05.428Z,2.07
2018-04-04T17:16:33.717Z,1.73
2018-04-04T17:19:01.226Z,1.83
2018-04-04T17:21:29.513Z,2.00
2018-04-04T17:23:57.777Z,1.67
2018-04-04T17:26:26.048Z,1.93
2018-04-04T17:28:54.373Z,2.00
2018-04-04T17:31:21.870Z,2.30
2018-04-04T17:33:49.429Z,1.90
2018-04-04T17:36:16.909Z,1.97
2018-04-04T17:38:45.201Z,2.10
2018-04-04T17:41:12.712Z,2.40
2018-04-04T17:43:43.708Z,2.30
2018-04-04T17:46:11.221Z,1.83
2018-04-04T17:48:39.501Z,1.80
2018-04-04T17:51:07.800Z,2.10
2018-04-04T17:53:35.300Z,1.87
2018-04-04T17:56:02.819Z,1.93
2018-04-04T17:58:30.332Z,2.13
2018-04-04T18:00:57.876Z,1.97
2018-04-04T18:03:25.386Z,1.67
2018-04-04T18:05:52.944Z,2.70
2018-04-04T18:08:20.453Z,2.00
2018-04-04T18:10:47.956Z,1.80
2018-04-04T18:13:17.478Z,1.83
2018-04-04T18:15:44.983Z,2.20
2018-04-04T18:18:12.541Z,2.10
2018-04-04T18:20:40.044Z,1.90
2018-04-04T18:23:07.564Z,1.90
2018-04-04T18:25:35.065Z,1.60
2018-04-04T18:28:02.581Z,2.20
2018-04-04T18:30:30.848Z,1.60
2018-04-04T18:32:58.381Z,2.33
2018-04-04T18:35:25.897Z,2.00
2018-04-04T18:37:53.410Z,1.73
2018-04-04T18:40:20.933Z,2.00
2018-04-04T18:42:49.377Z,1.83
2018-04-04T18:45:17.677Z,1.63
2018-04-04T18:47:45.172Z,1.70
2018-04-04T18:50:12.694Z,1.77
2018-04-04T18:52:40.194Z,2.07
2018-04-04T18:55:09.212Z,1.77
2018-04-04T18:57:37.514Z,2.30
2018-04-04T19:00:05.004Z,2.30
2018-04-04T19:02:32.542Z,1.90
2018-04-04T19:05:00.037Z,2.13
2018-04-04T19:07:27.563Z,2.10
2018-04-04T19:09:55.064Z,1.93
2018-04-04T19:12:23.375Z,1.90
2018-04-04T19:14:50.879Z,1.93
2018-04-04T19:17:19.150Z,1.90
2018-04-04T19:19:46.661Z,1.97
2018-04-04T19:22:14.167Z,1.93
2018-04-04T19:24:42.450Z,1.70
2018-04-04T19:27:09.961Z,1.80
2018-04-04T19:29:37.498Z,1.80
2018-04-04T19:32:05.009Z,1.90
2018-04-04T19:34:32.533Z,1.90
2018-04-04T19:37:00.032Z,1.73
2018-04-04T19:39:28.309Z,2.03
2018-04-04T19:41:55.828Z,1.97
2018-04-04T19:44:23.329Z,2.20
2018-04-04T19:46:50.864Z,1.77
2018-04-04T19:49:18.372Z,1.80
2018-04-04T19:51:45.899Z,1.67
2018-04-04T19:54:13.578Z,1.70
2018-04-04T19:56:41.389Z,1.80
2018-04-04T19:59:10.159Z,1.93
2018-04-04T20:01:38.029Z,1.93
2018-04-04T20:04:06.748Z,1.50
2018-04-04T20:06:35.396Z,1.63
2018-04-04T20:09:03.360Z,1.70
2018-04-04T20:11:31.327Z,1.73
2018-04-04T20:13:59.193Z,1.43
2018-04-04T20:16:27.160Z,1.50
2018-04-04T20:18:55.128Z,1.90
2018-04-04T20:21:23.915Z,1.90
2018-04-04T20:23:51.885Z,1.97
2018-04-04T20:26:20.880Z,2.10
2018-04-04T20:28:48.847Z,1.90
2018-04-04T20:31:16.809Z,1.70
2018-04-04T20:33:44.685Z,1.60
2018-04-04T20:36:12.653Z,1.83
2018-04-04T20:38:42.045Z,1.70
2018-04-04T20:41:10.032Z,2.23
2018-04-04T20:43:38.799Z,1.37
2018-04-04T20:46:07.688Z,1.80
2018-04-04T20:48:35.660Z,2.03
2018-04-04T20:51:04.549Z,1.70
2018-04-04T20:53:33.485Z,1.70
2018-04-04T20:56:03.146Z,2.73
2018-04-04T20:58:31.056Z,2.07
2018-04-04T21:00:59.694Z,2.60
2018-04-04T21:03:27.599Z,2.80
2018-04-04T21:05:56.243Z,1.97
2018-04-04T21:08:25.312Z,2.50
2018-04-04T21:10:53.256Z,2.33
2018-04-04T21:13:23.630Z,2.60
2018-04-04T21:15:52.517Z,2.40
2018-04-04T21:18:22.534Z,3.07
2018-04-04T21:20:50.400Z,2.43
2018-04-04T21:23:18.006Z,2.20
2018-04-04T21:25:46.747Z,2.47
2018-04-04T21:28:14.610Z,3.40
2018-04-04T21:30:42.576Z,2.80
2018-04-04T21:33:10.495Z,2.97
2018-04-04T21:35:39.237Z,2.90
2018-04-04T21:38:06.990Z,3.30
2018-04-04T21:40:35.781Z,2.97
2018-04-04T21:43:03.716Z,3.67
2018-04-04T21:45:31.401Z,2.67
2018-04-04T21:47:59.167Z,3.27
2018-04-04T21:50:27.036Z,3.20
2018-04-04T21:52:55.978Z,2.60
2018-04-04T21:55:24.285Z,3.13
2018-04-04T21:57:51.796Z,3.30
2018-04-04T22:00:19.729Z,3.20
2018-04-04T22:02:47.797Z,3.20
2018-04-04T22:05:15.303Z,3.33
2018-04-04T22:07:42.828Z,3.90
2018-04-04T22:10:10.324Z,3.30
2018-04-04T22:12:37.854Z,3.30
2018-04-04T22:15:05.365Z,3.17
2018-04-04T22:17:32.884Z,3.20
2018-04-04T22:20:00.407Z,3.57
2018-04-04T22:22:27.925Z,3.60
2018-04-04T22:24:55.463Z,3.10
2018-04-04T22:27:23.060Z,3.70
2018-04-04T22:29:50.594Z,3.37
2018-04-04T22:32:18.856Z,3.00
2018-04-04T22:34:46.369Z,4.00
2018-04-04T22:37:13.881Z,3.40
2018-04-04T22:39:42.160Z,3.60
2018-04-04T22:42:10.451Z,3.57
2018-04-04T22:44:37.952Z,3.23
2018-04-04T22:47:05.474Z,3.90
2018-04-04T22:49:32.982Z,3.30
2018-04-04T22:52:01.268Z,3.10
2018-04-04T22:54:28.766Z,2.47
2018-04-04T22:56:56.285Z,2.50
2018-04-04T22:59:24.808Z,2.80
2018-04-04T23:01:52.688Z,2.73
2018-04-04T23:04:20.747Z,2.83
2018-04-04T23:06:48.426Z,2.90
2018-04-04T23:09:16.173Z,2.70
2018-04-04T23:11:43.681Z,2.53
2018-04-04T23:14:11.188Z,2.53
2018-04-04T23:16:38.704Z,2.73
2018-04-04T23:19:06.966Z,2.57
2018-04-04T23:21:34.830Z,2.57
2018-04-04T23:24:03.368Z,2.80
2018-04-04T23:26:31.228Z,2.67
2018-04-04T23:29:00.404Z,2.40
2018-04-04T23:31:28.288Z,3.13
2018-04-04T23:33:55.812Z,2.47
2018-04-04T23:36:24.073Z,1.93
2018-04-04T23:38:51.591Z,1.57
2018-04-04T23:41:19.132Z,2.10
2018-04-04T23:43:46.652Z,2.13
2018-04-04T23:46:14.957Z,2.30
2018-04-04T23:48:43.228Z,1.97
2018-04-04T23:51:10.755Z,2.07
2018-04-04T23:53:39.045Z,2.10
2018-04-04T23:56:07.312Z,1.67
2018-04-04T23:58:35.564Z,2.03
